createdAt,value
2018-12-19T00:00:36.616Z,947.74
2018-12-19T00:01:36.567Z,947.76
2018-12-19T00:02:58.155Z,947.72
2018-12-19T00:03:36.541Z,947.67
2018-12-19T00:04:57.535Z,947.69
2018-12-19T00:05:36.521Z,947.63
2018-12-19T00:06:36.513Z,947.63
2018-12-19T00:07:57.497Z,947.65
2018-12-19T00:08:36.479Z,947.61
2018-12-19T00:09:57.472Z,947.59
2018-12-19T00:10:36.449Z,947.63
2018-12-19T00:11:36.445Z,947.65
2018-12-19T00:12:57.454Z,947.60
2018-12-19T00:13:36.415Z,947.55
2018-12-19T00:14:57.455Z,947.54
2018-12-19T00:15:36.396Z,947.54
2018-12-19T00:16:36.384Z,947.50
2018-12-19T00:17:57.374Z,947.46
2018-12-19T00:18:36.370Z,947.49
2018-12-19T00:19:57.355Z,947.49
2018-12-19T00:20:36.335Z,947.50
2018-12-19T00:21:36.324Z,947.47
2018-12-19T00:22:57.326Z,947.46
2018-12-19T00:23:36.293Z,947.44
2018-12-19T00:24:57.311Z,947.40
2018-12-19T00:25:36.270Z,947.38
2018-12-19T00:26:36.262Z,947.39
2018-12-19T00:27:57.248Z,947.32
2018-12-19T00:28:36.242Z,947.31
2018-12-19T00:29:57.240Z,947.33
2018-12-19T00:30:36.237Z,947.31
2018-12-19T00:31:36.201Z,947.32
2018-12-19T00:32:57.186Z,947.36
2018-12-19T00:33:36.192Z,947.35
2018-12-19T00:34:57.185Z,947.33
2018-12-19T00:35:36.164Z,947.33
2018-12-19T00:36:36.158Z,947.36
2018-12-19T00:37:57.129Z,947.36
2018-12-19T00:38:36.146Z,947.37
2018-12-19T00:39:57.125Z,947.41
2018-12-19T00:40:36.112Z,947.40
2018-12-19T00:41:36.090Z,947.44
2018-12-19T00:42:57.079Z,947.43
2018-12-19T00:43:36.058Z,947.47
2018-12-19T00:44:57.062Z,947.47
2018-12-19T00:45:36.033Z,947.46
2018-12-19T00:46:36.033Z,947.49
2018-12-19T00:47:57.016Z,947.51
2018-12-19T00:48:36.046Z,947.54
2018-12-19T00:49:57.001Z,947.57
2018-12-19T00:50:35.979Z,947.52
2018-12-19T00:51:35.977Z,947.47
2018-12-19T00:52:58.074Z,947.52
2018-12-19T00:53:36.240Z,947.43
2018-12-19T00:54:56.940Z,947.47
2018-12-19T00:55:35.921Z,947.44
2018-12-19T00:56:36.530Z,947.42
2018-12-19T00:57:56.916Z,947.40
2018-12-19T00:58:35.893Z,947.40
2018-12-19T00:59:56.882Z,947.40
2018-12-19T01:00:35.871Z,947.40
2018-12-19T01:01:35.859Z,947.41
2018-12-19T01:02:56.852Z,947.45
2018-12-19T01:03:35.841Z,947.42
2018-12-19T01:04:56.831Z,947.45
2018-12-19T01:05:35.796Z,947.46
2018-12-19T01:06:35.794Z,947.40
2018-12-19T01:07:56.780Z,947.44
2018-12-19T01:08:35.775Z,947.51
2018-12-19T01:09:56.762Z,947.48
2018-12-19T01:10:35.746Z,947.44
2018-12-19T01:11:35.733Z,947.43
2018-12-19T01:12:56.728Z,947.38
2018-12-19T01:13:35.706Z,947.35
2018-12-19T01:14:56.705Z,947.36
2018-12-19T01:15:35.671Z,947.35
2018-12-19T01:16:35.677Z,947.32
2018-12-19T01:17:56.666Z,947.31
2018-12-19T01:18:35.646Z,947.31
2018-12-19T01:19:56.638Z,947.35
2018-12-19T01:20:35.629Z,947.36
2018-12-19T01:21:35.599Z,947.40
2018-12-19T01:22:56.609Z,947.37
2018-12-19T01:23:35.595Z,947.39
2018-12-19T01:24:56.589Z,947.43
2018-12-19T01:25:35.569Z,947.41
2018-12-19T01:26:35.562Z,947.41
2018-12-19T01:27:56.547Z,947.43
2018-12-19T01:28:35.532Z,947.45
2018-12-19T01:29:56.518Z,947.40
2018-12-19T01:30:35.491Z,947.51
2018-12-19T01:31:35.491Z,947.48
2018-12-19T01:32:56.484Z,947.44
2018-12-19T01:33:35.472Z,947.47
2018-12-19T01:34:56.464Z,947.46
2018-12-19T01:35:35.455Z,947.41
2018-12-19T01:36:35.430Z,947.39
2018-12-19T01:37:56.424Z,947.39
2018-12-19T01:38:35.402Z,947.33
2018-12-19T01:39:56.401Z,947.38
2018-12-19T01:40:35.401Z,947.40
2018-12-19T01:41:35.362Z,947.38
2018-12-19T01:42:56.369Z,947.38
2018-12-19T01:43:35.363Z,947.35
2018-12-19T01:44:56.336Z,947.35
2018-12-19T01:45:35.375Z,947.38
2018-12-19T01:46:35.316Z,947.32
2018-12-19T01:47:56.305Z,947.38
2018-12-19T01:48:35.289Z,947.42
2018-12-19T01:49:56.274Z,947.41
2018-12-19T01:50:35.258Z,947.42
2018-12-19T01:51:35.267Z,947.44
2018-12-19T01:52:56.250Z,947.39
2018-12-19T01:53:35.226Z,947.39
2018-12-19T01:54:56.230Z,947.40
2018-12-19T01:55:35.212Z,947.44
2018-12-19T01:56:35.209Z,947.42
2018-12-19T01:57:56.189Z,947.42
2018-12-19T01:58:35.169Z,947.42
2018-12-19T01:59:56.198Z,947.42
2018-12-19T02:00:35.152Z,947.36
2018-12-19T02:01:35.134Z,947.35
2018-12-19T02:02:56.127Z,947.37
2018-12-19T02:03:35.111Z,947.32
2018-12-19T02:04:56.106Z,947.35
2018-12-19T02:05:35.084Z,947.28
2018-12-19T02:06:35.068Z,947.35
2018-12-19T02:07:56.239Z,947.35
2018-12-19T02:08:35.052Z,947.33
2018-12-19T02:09:56.051Z,947.38
2018-12-19T02:10:35.033Z,947.33
2018-12-19T02:11:35.018Z,947.35
2018-12-19T02:12:56.011Z,947.33
2018-12-19T02:13:35.002Z,947.32
2018-12-19T02:14:55.982Z,947.30
2018-12-19T02:15:34.957Z,947.32
2018-12-19T02:16:34.964Z,947.34
2018-12-19T02:17:55.951Z,947.30
2018-12-19T02:18:34.938Z,947.35
2018-12-19T02:19:55.922Z,947.33
2018-12-19T02:20:34.910Z,947.39
2018-12-19T02:21:34.884Z,947.38
2018-12-19T02:22:55.880Z,947.40
2018-12-19T02:23:34.909Z,947.37
2018-12-19T02:24:56.077Z,947.37
2018-12-19T02:25:34.850Z,947.39
2018-12-19T02:26:34.841Z,947.35
2018-12-19T02:27:56.114Z,947.29
2018-12-19T02:28:34.820Z,947.31
2018-12-19T02:29:55.797Z,947.34
2018-12-19T02:30:35.086Z,947.28
2018-12-19T02:31:34.801Z,947.28
2018-12-19T02:32:55.775Z,947.28
2018-12-19T02:33:34.753Z,947.23
2018-12-19T02:34:55.748Z,947.23
2018-12-19T02:35:34.733Z,947.24
2018-12-19T02:36:34.715Z,947.27
2018-12-19T02:37:55.729Z,947.28
2018-12-19T02:38:34.692Z,947.18
2018-12-19T02:39:55.694Z,947.20
2018-12-19T02:40:34.677Z,947.24
2018-12-19T02:41:34.661Z,947.20
2018-12-19T02:42:55.658Z,947.17
2018-12-19T02:43:34.688Z,947.16
2018-12-19T02:44:55.633Z,947.13
2018-12-19T02:45:34.610Z,947.13
2018-12-19T02:46:34.596Z,947.13
2018-12-19T02:47:55.590Z,947.11
2018-12-19T02:48:34.583Z,947.09
2018-12-19T02:49:55.569Z,947.08
2018-12-19T02:50:34.569Z,947.08
2018-12-19T02:51:34.544Z,947.12
2018-12-19T02:52:55.531Z,947.09
2018-12-19T02:53:34.546Z,947.11
2018-12-19T02:54:55.507Z,947.12
2018-12-19T02:55:34.498Z,947.12
2018-12-19T02:56:34.476Z,947.15
2018-12-19T02:57:55.472Z,947.09
2018-12-19T02:58:34.447Z,947.14
2018-12-19T02:59:55.446Z,947.08
2018-12-19T03:00:34.447Z,947.09
2018-12-19T03:01:34.415Z,947.07
2018-12-19T03:02:55.417Z,947.06
2018-12-19T03:03:34.402Z,947.05
2018-12-19T03:04:55.387Z,947.09
2018-12-19T03:05:34.375Z,947.11
2018-12-19T03:06:34.358Z,947.10
2018-12-19T03:07:55.355Z,947.09
2018-12-19T03:08:34.351Z,947.11
2018-12-19T03:09:55.337Z,947.14
2018-12-19T03:10:34.312Z,947.06
2018-12-19T03:11:34.309Z,947.09
2018-12-19T03:12:55.300Z,947.04
2018-12-19T03:13:34.285Z,947.06
2018-12-19T03:14:55.287Z,947.05
2018-12-19T03:15:34.261Z,947.04
2018-12-19T03:16:34.251Z,946.99
2018-12-19T03:17:55.236Z,946.97
2018-12-19T03:18:34.213Z,946.96
2018-12-19T03:19:55.206Z,946.96
2018-12-19T03:20:34.195Z,946.96
2018-12-19T03:21:34.469Z,946.98
2018-12-19T03:22:55.184Z,946.92
2018-12-19T03:23:34.172Z,946.96
2018-12-19T03:24:55.164Z,946.92
2018-12-19T03:25:34.139Z,946.91
2018-12-19T03:26:34.126Z,946.86
2018-12-19T03:27:55.124Z,946.85
2018-12-19T03:28:34.109Z,946.85
2018-12-19T03:29:55.096Z,946.82
2018-12-19T03:30:34.108Z,946.84
2018-12-19T03:31:34.069Z,946.83
2018-12-19T03:32:55.093Z,946.85
2018-12-19T03:33:34.050Z,946.83
2018-12-19T03:34:55.082Z,946.81
2018-12-19T03:35:34.019Z,946.87
2018-12-19T03:36:34.032Z,946.86
2018-12-19T03:37:55.006Z,946.84
2018-12-19T03:38:33.986Z,946.85
2018-12-19T03:39:54.986Z,946.85
2018-12-19T03:40:33.956Z,946.83
2018-12-19T03:41:33.963Z,946.82
2018-12-19T03:42:54.945Z,946.86
2018-12-19T03:43:33.939Z,946.81
2018-12-19T03:44:54.917Z,946.83
2018-12-19T03:45:33.907Z,946.82
2018-12-19T03:46:33.897Z,946.89
2018-12-19T03:47:54.899Z,946.85
2018-12-19T03:48:33.873Z,946.86
2018-12-19T03:49:54.869Z,946.87
2018-12-19T03:50:33.851Z,946.90
2018-12-19T03:51:33.832Z,946.88
2018-12-19T03:52:54.823Z,946.90
2018-12-19T03:53:33.818Z,946.88
2018-12-19T03:54:54.809Z,946.86
2018-12-19T03:55:33.797Z,946.90
2018-12-19T03:56:33.782Z,946.90
2018-12-19T03:57:54.775Z,946.85
2018-12-19T03:58:33.747Z,946.84
2018-12-19T03:59:54.741Z,946.87
2018-12-19T04:00:33.733Z,946.88
2018-12-19T04:01:33.725Z,946.84
2018-12-19T04:02:55.536Z,946.90
2018-12-19T04:03:33.707Z,946.92
2018-12-19T04:04:54.696Z,946.95
2018-12-19T04:05:33.670Z,946.94
2018-12-19T04:06:33.660Z,946.96
2018-12-19T04:07:54.659Z,946.99
2018-12-19T04:08:33.644Z,947.00
2018-12-19T04:09:57.879Z,946.98
2018-12-19T04:10:33.619Z,946.99
2018-12-19T04:11:33.608Z,946.97
2018-12-19T04:12:54.602Z,946.96
2018-12-19T04:13:33.582Z,947.01
2018-12-19T04:14:54.580Z,947.02
2018-12-19T04:15:33.550Z,946.99
2018-12-19T04:16:33.536Z,946.99
2018-12-19T04:17:54.805Z,947.00
2018-12-19T04:18:33.521Z,947.04
2018-12-19T04:19:54.525Z,946.94
2018-12-19T04:20:33.507Z,946.90
2018-12-19T04:21:33.481Z,946.94
2018-12-19T04:22:54.482Z,946.96
2018-12-19T04:23:33.459Z,946.94
2018-12-19T04:24:54.459Z,946.95
2018-12-19T04:25:33.441Z,946.96
2018-12-19T04:26:33.430Z,946.91
2018-12-19T04:27:54.424Z,946.88
2018-12-19T04:28:33.408Z,946.89
2018-12-19T04:29:54.396Z,946.89
2018-12-19T04:30:33.399Z,946.90
2018-12-19T04:31:33.383Z,946.90
2018-12-19T04:32:54.381Z,946.94
2018-12-19T04:33:33.356Z,946.92
2018-12-19T04:34:54.341Z,946.89
2018-12-19T04:35:33.325Z,946.98
2018-12-19T04:36:33.310Z,946.90
2018-12-19T04:37:54.317Z,946.93
2018-12-19T04:38:33.303Z,946.90
2018-12-19T04:39:54.546Z,946.93
2018-12-19T04:40:33.503Z,947.01
2018-12-19T04:41:33.262Z,946.96
2018-12-19T04:42:54.270Z,946.96
2018-12-19T04:43:33.246Z,946.99
2018-12-19T04:44:54.239Z,946.96
2018-12-19T04:45:33.211Z,947.02
2018-12-19T04:46:33.250Z,946.98
2018-12-19T04:47:54.214Z,946.91
2018-12-19T04:48:33.183Z,946.91
2018-12-19T04:49:54.184Z,946.92
2018-12-19T04:50:33.162Z,946.91
2018-12-19T04:51:33.217Z,946.94
2018-12-19T04:52:54.151Z,946.95
2018-12-19T04:53:33.134Z,946.97
2018-12-19T04:54:54.118Z,946.95
2018-12-19T04:55:33.110Z,946.96
2018-12-19T04:56:33.088Z,946.98
2018-12-19T04:57:54.098Z,947.02
2018-12-19T04:58:33.069Z,947.00
2018-12-19T04:59:54.074Z,946.99
2018-12-19T05:00:34.084Z,947.01
2018-12-19T05:01:33.033Z,947.07
2018-12-19T05:02:54.028Z,947.06
2018-12-19T05:03:33.023Z,947.05
2018-12-19T05:04:54.007Z,947.03
2018-12-19T05:05:33.076Z,947.01
2018-12-19T05:06:33.010Z,946.99
2018-12-19T05:07:53.977Z,947.02
2018-12-19T05:08:32.964Z,947.01
2018-12-19T05:09:53.950Z,946.98
2018-12-19T05:10:32.951Z,947.03
2018-12-19T05:11:32.931Z,947.02
2018-12-19T05:12:53.927Z,947.06
2018-12-19T05:13:32.905Z,947.04
2018-12-19T05:14:53.909Z,946.97
2018-12-19T05:15:32.879Z,946.94
2018-12-19T05:16:32.968Z,946.97
2018-12-19T05:17:53.884Z,946.97
2018-12-19T05:18:32.851Z,946.92
2018-12-19T05:19:53.880Z,946.95
2018-12-19T05:20:32.833Z,946.95
2018-12-19T05:21:32.809Z,946.93
2018-12-19T05:22:53.814Z,946.94
2018-12-19T05:23:32.796Z,946.97
2018-12-19T05:24:53.793Z,946.97
2018-12-19T05:25:32.774Z,946.96
2018-12-19T05:26:32.767Z,946.96
2018-12-19T05:27:53.751Z,946.95
2018-12-19T05:28:32.745Z,946.96
2018-12-19T05:29:53.738Z,947.04
2018-12-19T05:30:32.759Z,947.01
2018-12-19T05:31:32.716Z,947.04
2018-12-19T05:32:53.703Z,947.02
2018-12-19T05:33:32.974Z,947.01
2018-12-19T05:34:54.004Z,947.03
2018-12-19T05:35:32.834Z,947.06
2018-12-19T05:36:32.683Z,947.08
2018-12-19T05:37:53.653Z,947.13
2018-12-19T05:38:32.626Z,947.11
2018-12-19T05:39:53.631Z,947.14
2018-12-19T05:40:32.620Z,947.21
2018-12-19T05:41:32.598Z,947.18
2018-12-19T05:42:53.609Z,947.19
2018-12-19T05:43:32.606Z,947.18
2018-12-19T05:44:53.585Z,947.19
2018-12-19T05:45:32.555Z,947.06
2018-12-19T05:46:32.556Z,947.03
2018-12-19T05:47:53.531Z,947.07
2018-12-19T05:48:32.515Z,947.09
2018-12-19T05:49:53.530Z,947.09
2018-12-19T05:50:32.497Z,947.12
2018-12-19T05:51:32.512Z,947.14
2018-12-19T05:52:53.477Z,947.14
2018-12-19T05:53:32.472Z,947.12
2018-12-19T05:54:53.469Z,947.10
2018-12-19T05:55:32.451Z,947.15
2018-12-19T05:56:32.439Z,947.20
2018-12-19T05:57:53.497Z,947.22
2018-12-19T05:58:32.422Z,947.21
2018-12-19T05:59:53.415Z,947.25
2018-12-19T06:00:32.391Z,947.28
2018-12-19T06:01:32.378Z,947.24
2018-12-19T06:02:53.368Z,947.15
2018-12-19T06:03:32.365Z,947.23
2018-12-19T06:04:53.357Z,947.22
2018-12-19T06:05:32.351Z,947.25
2018-12-19T06:06:32.333Z,947.24
2018-12-19T06:07:53.325Z,947.27
2018-12-19T06:08:32.314Z,947.26
2018-12-19T06:09:53.305Z,947.27
2018-12-19T06:10:32.293Z,947.28
2018-12-19T06:11:32.270Z,947.26
2018-12-19T06:12:53.276Z,947.26
2018-12-19T06:13:32.528Z,947.33
2018-12-19T06:14:53.240Z,947.36
2018-12-19T06:15:32.465Z,947.34
2018-12-19T06:16:32.223Z,947.36
2018-12-19T06:17:53.394Z,947.34
2018-12-19T06:18:32.200Z,947.34
2018-12-19T06:19:53.253Z,947.37
2018-12-19T06:20:32.186Z,947.34
2018-12-19T06:21:32.279Z,947.33
2018-12-19T06:22:53.161Z,947.35
2018-12-19T06:23:32.144Z,947.36
2018-12-19T06:24:53.144Z,947.33
2018-12-19T06:25:32.189Z,947.37
2018-12-19T06:26:32.124Z,947.38
2018-12-19T06:27:53.104Z,947.39
2018-12-19T06:28:32.492Z,947.40
2018-12-19T06:29:54.147Z,947.42
2018-12-19T06:30:32.060Z,947.35
2018-12-19T06:31:32.084Z,947.37
2018-12-19T06:32:53.053Z,947.38
2018-12-19T06:33:32.033Z,947.30
2018-12-19T06:34:53.020Z,947.34
2018-12-19T06:35:32.012Z,947.35
2018-12-19T06:36:32.014Z,947.36
2018-12-19T06:37:53.018Z,947.36
2018-12-19T06:38:31.995Z,947.37
2018-12-19T06:39:52.985Z,947.43
2018-12-19T06:40:32.826Z,947.44
2018-12-19T06:41:31.982Z,947.39
2018-12-19T06:42:52.944Z,947.40
2018-12-19T06:43:31.929Z,947.40
2018-12-19T06:44:52.936Z,947.40
2018-12-19T06:45:31.909Z,947.43
2018-12-19T06:46:31.938Z,947.38
2018-12-19T06:47:52.892Z,947.45
2018-12-19T06:48:31.889Z,947.34
2018-12-19T06:49:52.884Z,947.41
2018-12-19T06:50:31.862Z,947.37
2018-12-19T06:51:31.862Z,947.39
2018-12-19T06:52:52.853Z,947.42
2018-12-19T06:53:31.863Z,947.39
2018-12-19T06:54:52.873Z,947.39
2018-12-19T06:55:31.936Z,947.34
2018-12-19T06:56:31.798Z,947.33
2018-12-19T06:57:52.842Z,947.32
2018-12-19T06:58:31.888Z,947.36
2018-12-19T06:59:52.772Z,947.34
2018-12-19T07:00:31.761Z,947.37
2018-12-19T07:01:31.755Z,947.43
2018-12-19T07:02:52.759Z,947.39
2018-12-19T07:03:31.740Z,947.38
2018-12-19T07:04:52.727Z,947.43
2018-12-19T07:05:31.705Z,947.42
2018-12-19T07:06:31.747Z,947.38
2018-12-19T07:07:52.698Z,947.38
2018-12-19T07:08:31.672Z,947.34
2018-12-19T07:09:52.669Z,947.33
2018-12-19T07:10:31.661Z,947.31
2018-12-19T07:11:31.650Z,947.35
2018-12-19T07:12:52.651Z,947.33
2018-12-19T07:13:31.625Z,947.31
2018-12-19T07:14:52.627Z,947.38
2018-12-19T07:15:31.617Z,947.41
2018-12-19T07:16:31.600Z,947.37
2018-12-19T07:17:52.604Z,947.40
2018-12-19T07:18:31.573Z,947.45
2018-12-19T07:19:52.568Z,947.44
2018-12-19T07:20:31.551Z,947.46
2018-12-19T07:21:31.559Z,947.49
2018-12-19T07:22:52.538Z,947.48
2018-12-19T07:23:31.514Z,947.46
2018-12-19T07:24:52.531Z,947.46
2018-12-19T07:25:32.217Z,947.43
2018-12-19T07:26:31.493Z,947.46
2018-12-19T07:27:52.482Z,947.44
2018-12-19T07:28:31.513Z,947.44
2018-12-19T07:29:52.478Z,947.45
2018-12-19T07:30:31.444Z,947.48
2018-12-19T07:31:31.456Z,947.47
2018-12-19T07:32:52.551Z,947.44
2018-12-19T07:33:31.456Z,947.40
2018-12-19T07:34:52.418Z,947.36
2018-12-19T07:35:31.394Z,947.40
2018-12-19T07:36:31.377Z,947.39
2018-12-19T07:37:52.373Z,947.36
2018-12-19T07:38:31.362Z,947.36
2018-12-19T07:39:52.362Z,947.34
2018-12-19T07:40:31.345Z,947.35
2018-12-19T07:41:31.337Z,947.28
2018-12-19T07:42:52.358Z,947.34
2018-12-19T07:43:31.324Z,947.43
2018-12-19T07:44:52.305Z,947.39
2018-12-19T07:45:31.286Z,947.49
2018-12-19T07:46:31.280Z,947.44
2018-12-19T07:47:52.292Z,947.45
2018-12-19T07:48:31.268Z,947.47
2018-12-19T07:49:52.258Z,947.48
2018-12-19T07:50:31.249Z,947.48
2018-12-19T07:51:31.243Z,947.43
2018-12-19T07:52:52.232Z,947.43
2018-12-19T07:53:31.215Z,947.45
2018-12-19T07:54:52.224Z,947.43
2018-12-19T07:55:31.194Z,947.50
2018-12-19T07:56:31.179Z,947.46
2018-12-19T07:57:52.175Z,947.40
2018-12-19T07:58:31.153Z,947.43
2018-12-19T07:59:52.145Z,947.38
2018-12-19T08:00:31.142Z,947.43
2018-12-19T08:01:31.135Z,947.44
2018-12-19T08:02:52.125Z,947.40
2018-12-19T08:03:31.109Z,947.46
2018-12-19T08:04:52.120Z,947.46
2018-12-19T08:05:31.076Z,947.46
2018-12-19T08:06:31.131Z,947.49
2018-12-19T08:07:52.082Z,947.49
2018-12-19T08:08:31.059Z,947.52
2018-12-19T08:09:52.051Z,947.51
2018-12-19T08:10:31.049Z,947.52
2018-12-19T08:11:31.042Z,947.48
2018-12-19T08:12:52.021Z,947.49
2018-12-19T08:13:31.005Z,947.48
2018-12-19T08:14:52.017Z,947.52
2018-12-19T08:15:30.996Z,947.49
2018-12-19T08:16:30.986Z,947.49
2018-12-19T08:17:51.986Z,947.51
2018-12-19T08:18:30.968Z,947.51
2018-12-19T08:19:51.961Z,947.53
2018-12-19T08:20:31.144Z,947.55
2018-12-19T08:21:30.937Z,947.55
2018-12-19T08:22:51.932Z,947.54
2018-12-19T08:23:32.023Z,947.50
2018-12-19T08:24:51.973Z,947.47
2018-12-19T08:25:30.949Z,947.47
2018-12-19T08:26:31.082Z,947.47
2018-12-19T08:27:51.893Z,947.47
2018-12-19T08:28:30.868Z,947.41
2018-12-19T08:29:51.863Z,947.35
2018-12-19T08:30:31.053Z,947.33
2018-12-19T08:31:30.851Z,947.33
2018-12-19T08:32:52.078Z,947.33
2018-12-19T08:33:30.816Z,947.29
2018-12-19T08:34:51.820Z,947.32
2018-12-19T08:35:30.801Z,947.30
2018-12-19T08:36:30.787Z,947.35
2018-12-19T08:37:51.786Z,947.37
2018-12-19T08:38:31.558Z,947.41
2018-12-19T08:39:51.805Z,947.46
2018-12-19T08:40:30.753Z,947.47
2018-12-19T08:41:30.744Z,947.45
2018-12-19T08:42:51.735Z,947.49
2018-12-19T08:43:30.726Z,947.49
2018-12-19T08:44:51.724Z,947.46
2018-12-19T08:45:30.718Z,947.42
2018-12-19T08:46:30.707Z,947.43
2018-12-19T08:47:51.690Z,947.45
2018-12-19T08:48:30.683Z,947.47
2018-12-19T08:49:51.682Z,947.47
2018-12-19T08:50:30.656Z,947.48
2018-12-19T08:51:30.658Z,947.47
2018-12-19T08:52:51.650Z,947.44
2018-12-19T08:53:30.639Z,947.43
2018-12-19T08:54:51.638Z,947.44
2018-12-19T08:55:30.632Z,947.48
2018-12-19T08:56:30.598Z,947.52
2018-12-19T08:57:51.603Z,947.47
2018-12-19T08:58:30.594Z,947.49
2018-12-19T08:59:51.590Z,947.47
2018-12-19T09:00:30.573Z,947.50
2018-12-19T09:01:30.562Z,947.50
2018-12-19T09:02:51.555Z,947.54
2018-12-19T09:03:30.546Z,947.53
2018-12-19T09:04:51.542Z,947.55
2018-12-19T09:05:30.524Z,947.50
2018-12-19T09:06:30.528Z,947.53
2018-12-19T09:07:51.534Z,947.51
2018-12-19T09:08:30.514Z,947.51
2018-12-19T09:09:51.508Z,947.48
2018-12-19T09:10:30.474Z,947.44
2018-12-19T09:11:30.476Z,947.42
2018-12-19T09:12:51.477Z,947.43
2018-12-19T09:13:30.488Z,947.44
2018-12-19T09:14:51.458Z,947.46
2018-12-19T09:15:30.432Z,947.46
2018-12-19T09:16:30.431Z,947.45
2018-12-19T09:17:51.431Z,947.44
2018-12-19T09:18:30.407Z,947.43
2018-12-19T09:19:51.401Z,947.48
2018-12-19T09:20:30.396Z,947.48
2018-12-19T09:21:30.392Z,947.49
2018-12-19T09:22:51.375Z,947.47
2018-12-19T09:23:30.367Z,947.55
2018-12-19T09:24:51.373Z,947.60
2018-12-19T09:25:30.350Z,947.57
2018-12-19T09:26:30.349Z,947.58
2018-12-19T09:27:51.800Z,947.53
2018-12-19T09:28:30.328Z,947.53
2018-12-19T09:29:51.340Z,947.54
2018-12-19T09:30:30.300Z,947.54
2018-12-19T09:31:30.300Z,947.50
2018-12-19T09:32:52.649Z,947.54
2018-12-19T09:33:30.291Z,947.54
2018-12-19T09:34:51.278Z,947.52
2018-12-19T09:35:30.273Z,947.51
2018-12-19T09:36:30.256Z,947.51
2018-12-19T09:37:51.251Z,947.48
2018-12-19T09:38:30.246Z,947.47
2018-12-19T09:39:51.245Z,947.45
2018-12-19T09:40:30.224Z,947.43
2018-12-19T09:41:30.202Z,947.39
2018-12-19T09:42:51.218Z,947.35
2018-12-19T09:43:30.198Z,947.33
2018-12-19T09:44:51.211Z,947.39
2018-12-19T09:45:30.177Z,947.39
2018-12-19T09:46:30.175Z,947.42
2018-12-19T09:47:51.176Z,947.42
2018-12-19T09:48:30.172Z,947.46
2018-12-19T09:49:51.157Z,947.46
2018-12-19T09:50:30.148Z,947.48
2018-12-19T09:51:30.133Z,947.46
2018-12-19T09:52:51.132Z,947.49
2018-12-19T09:53:30.116Z,947.48
2018-12-19T09:54:51.129Z,947.43
2018-12-19T09:55:30.109Z,947.45
2018-12-19T09:56:30.102Z,947.46
2018-12-19T09:57:51.106Z,947.44
2018-12-19T09:58:30.088Z,947.39
2018-12-19T09:59:51.073Z,947.37
2018-12-19T10:00:30.059Z,947.39
2018-12-19T10:01:30.053Z,947.36
2018-12-19T10:02:51.056Z,947.35
2018-12-19T10:03:30.036Z,947.36
2018-12-19T10:04:51.038Z,947.35
2018-12-19T10:05:30.026Z,947.31
2018-12-19T10:06:30.005Z,947.28
2018-12-19T10:07:51.022Z,947.27
2018-12-19T10:08:30.645Z,947.26
2018-12-19T10:09:51.003Z,947.26
2018-12-19T10:10:29.990Z,947.26
2018-12-19T10:11:29.981Z,947.23
2018-12-19T10:12:50.977Z,947.17
2018-12-19T10:13:29.957Z,947.17
2018-12-19T10:14:50.965Z,947.08
2018-12-19T10:15:29.950Z,947.06
2018-12-19T10:16:29.944Z,947.07
2018-12-19T10:17:50.946Z,946.99
2018-12-19T10:18:29.933Z,947.01
2018-12-19T10:19:52.509Z,946.99
2018-12-19T10:20:29.936Z,947.00
2018-12-19T10:21:29.900Z,947.01
2018-12-19T10:22:51.176Z,947.06
2018-12-19T10:23:29.895Z,947.09
2018-12-19T10:24:50.895Z,947.09
2018-12-19T10:25:29.887Z,947.07
2018-12-19T10:26:29.875Z,947.01
2018-12-19T10:27:50.862Z,946.98
2018-12-19T10:28:29.854Z,946.98
2018-12-19T10:29:50.856Z,946.91
2018-12-19T10:30:29.843Z,946.93
2018-12-19T10:31:29.841Z,946.88
2018-12-19T10:32:50.830Z,946.89
2018-12-19T10:33:29.821Z,946.89
2018-12-19T10:34:50.823Z,946.93
2018-12-19T10:35:29.810Z,946.93
2018-12-19T10:36:29.795Z,946.94
2018-12-19T10:37:50.791Z,946.92
2018-12-19T10:38:29.790Z,946.88
2018-12-19T10:39:50.788Z,946.81
2018-12-19T10:40:29.765Z,946.82
2018-12-19T10:41:29.766Z,946.81
2018-12-19T10:42:51.860Z,946.79
2018-12-19T10:43:29.748Z,946.84
2018-12-19T10:44:50.763Z,946.82
2018-12-19T10:45:29.744Z,946.74
2018-12-19T10:46:29.722Z,946.75
2018-12-19T10:47:50.734Z,946.69
2018-12-19T10:48:29.715Z,946.68
2018-12-19T10:49:50.717Z,946.69
2018-12-19T10:50:29.709Z,946.67
2018-12-19T10:51:29.689Z,946.64
2018-12-19T10:52:50.688Z,946.66
2018-12-19T10:53:29.682Z,946.66
2018-12-19T10:54:50.680Z,946.64
2018-12-19T10:55:29.662Z,946.62
2018-12-19T10:56:29.657Z,946.65
2018-12-19T10:57:50.667Z,946.58
2018-12-19T10:58:29.646Z,946.56
2018-12-19T10:59:50.644Z,946.60
2018-12-19T11:00:29.632Z,946.58
2018-12-19T11:01:29.630Z,946.64
2018-12-19T11:02:50.628Z,946.66
2018-12-19T11:03:29.610Z,946.68
2018-12-19T11:04:50.617Z,946.64
2018-12-19T11:05:29.600Z,946.63
2018-12-19T11:06:29.592Z,946.62
2018-12-19T11:07:50.591Z,946.62
2018-12-19T11:08:29.575Z,946.67
2018-12-19T11:09:50.577Z,946.63
2018-12-19T11:10:29.579Z,946.65
2018-12-19T11:11:32.477Z,946.56
2018-12-19T11:12:50.599Z,946.52
2018-12-19T11:13:29.539Z,946.55
2018-12-19T11:14:50.554Z,946.50
2018-12-19T11:15:29.522Z,946.53
2018-12-19T11:16:29.526Z,946.54
2018-12-19T11:17:50.528Z,946.48
2018-12-19T11:18:29.509Z,946.52
2018-12-19T11:19:50.507Z,946.49
2018-12-19T11:20:29.502Z,946.52
2018-12-19T11:21:29.484Z,946.48
2018-12-19T11:22:50.485Z,946.46
2018-12-19T11:23:29.469Z,946.46
2018-12-19T11:24:50.476Z,946.46
2018-12-19T11:25:29.451Z,946.47
2018-12-19T11:26:29.460Z,946.41
2018-12-19T11:27:50.445Z,946.40
2018-12-19T11:28:29.436Z,946.40
2018-12-19T11:29:50.448Z,946.37
2018-12-19T11:30:29.432Z,946.31
2018-12-19T11:31:29.425Z,946.31
2018-12-19T11:32:50.703Z,946.26
2018-12-19T11:33:30.283Z,946.26
2018-12-19T11:34:50.407Z,946.22
2018-12-19T11:35:29.391Z,946.21
2018-12-19T11:36:29.377Z,946.17
2018-12-19T11:37:50.384Z,946.19
2018-12-19T11:38:29.373Z,946.16
2018-12-19T11:39:50.370Z,946.16
2018-12-19T11:40:29.357Z,946.15
2018-12-19T11:41:29.349Z,946.23
2018-12-19T11:42:50.340Z,946.27
2018-12-19T11:43:29.332Z,946.32
2018-12-19T11:44:50.351Z,946.29
2018-12-19T11:45:29.313Z,946.34
2018-12-19T11:46:29.338Z,946.30
2018-12-19T11:47:50.325Z,946.26
2018-12-19T11:48:29.297Z,946.31
2018-12-19T11:49:50.302Z,946.30
2018-12-19T11:50:29.298Z,946.29
2018-12-19T11:51:29.276Z,946.25
2018-12-19T11:52:50.273Z,946.24
2018-12-19T11:53:29.270Z,946.25
2018-12-19T11:54:50.265Z,946.23
2018-12-19T11:55:29.246Z,946.19
2018-12-19T11:56:29.235Z,946.16
2018-12-19T11:57:50.235Z,946.20
2018-12-19T11:58:29.222Z,946.21
2018-12-19T11:59:50.224Z,946.24
2018-12-19T12:00:29.215Z,946.27
2018-12-19T12:01:29.216Z,946.27
2018-12-19T12:02:50.225Z,946.28
2018-12-19T12:03:29.564Z,946.19
2018-12-19T12:04:50.203Z,946.21
2018-12-19T12:05:29.226Z,946.16
2018-12-19T12:06:29.174Z,946.14
2018-12-19T12:07:50.175Z,946.11
2018-12-19T12:08:29.175Z,946.12
2018-12-19T12:09:50.163Z,946.10
2018-12-19T12:10:29.206Z,946.07
2018-12-19T12:11:29.138Z,946.05
2018-12-19T12:12:50.134Z,946.06
2018-12-19T12:13:29.129Z,946.06
2018-12-19T12:14:50.124Z,946.03
2018-12-19T12:15:29.118Z,946.04
2018-12-19T12:16:29.112Z,946.02
2018-12-19T12:17:50.108Z,946.05
2018-12-19T12:18:29.099Z,946.01
2018-12-19T12:19:50.090Z,946.03
2018-12-19T12:20:29.112Z,946.06
2018-12-19T12:21:29.083Z,946.02
2018-12-19T12:22:50.073Z,946.01
2018-12-19T12:23:29.056Z,945.98
2018-12-19T12:24:50.047Z,945.96
2018-12-19T12:25:29.806Z,945.94
2018-12-19T12:26:29.037Z,945.93
2018-12-19T12:27:50.046Z,945.93
2018-12-19T12:28:29.021Z,945.92